Terminal Aerodrome Forecast
Issued by NWS

Home | Current Version | Previous Version | Text Only | Print | Product List | Glossary On
Versions: 1 2 3 4 5 6 7 8 9 10 11 12 13 14 15 16 17 18 19 20 21 22 23 24 25 26 27 28 29 30 31 32 33 34 35 36 37 38 39 40 41 42
000
FTUS41 KBOX 101346 AAA
TAFBAF
TAF AMD
KBAF 101346Z 1014/1112 00000KT 1/2SM SN OVC010
     FM101500 00000KT 1 1/2SM -SN OVC015
     FM101700 25004KT P6SM VCSH OVC015
     FM101900 26005KT P6SM OVC025
     FM102000 27005KT P6SM BKN035
     FM110600 33004KT P6SM BKN040
     FM111000 34006KT P6SM VCSH BKN050=

USA.gov is the U.S. government's official web portal to all federal, state and local government web resources and services.